createdAt,value
2018-09-27T00:01:44.768Z,75.12
2018-09-27T00:04:14.880Z,73.23
2018-09-27T00:06:44.983Z,73.09
2018-09-27T00:09:14.897Z,72.67
2018-09-27T00:11:44.903Z,73.62
2018-09-27T00:14:14.953Z,73.80
2018-09-27T00:16:44.992Z,73.96
2018-09-27T00:19:14.951Z,72.75
2018-09-27T00:21:44.976Z,73.23
2018-09-27T00:24:14.955Z,71.49
2018-09-27T00:26:44.983Z,75.36
2018-09-27T00:29:14.932Z,76.69
2018-09-27T00:31:45.107Z,78.71
2018-09-27T00:34:15.154Z,78.03
2018-09-27T00:36:45.214Z,76.84
2018-09-27T00:39:15.239Z,75.44
2018-09-27T00:41:45.274Z,73.00
2018-09-27T00:44:15.296Z,71.72
2018-09-27T00:46:45.321Z,75.43
2018-09-27T00:49:15.337Z,76.76
2018-09-27T00:51:45.347Z,74.10
2018-09-27T00:54:15.394Z,72.42
2018-09-27T00:56:45.421Z,73.37
2018-09-27T00:59:15.431Z,72.41
2018-09-27T01:01:45.554Z,72.19
2018-09-27T01:04:15.601Z,76.05
2018-09-27T01:06:45.595Z,78.02
2018-09-27T01:09:15.704Z,76.06
2018-09-27T01:11:45.913Z,75.53
2018-09-27T01:14:15.972Z,74.28
2018-09-27T01:16:46.028Z,75.81
2018-09-27T01:19:16.135Z,74.86
2018-09-27T01:21:46.174Z,73.21
2018-09-27T01:24:16.152Z,75.54
2018-09-27T01:26:46.168Z,74.51
2018-09-27T01:29:16.132Z,76.40
2018-09-27T01:31:46.151Z,76.12
2018-09-27T01:34:16.142Z,78.29
2018-09-27T01:36:46.140Z,77.36
2018-09-27T01:39:16.088Z,77.34
2018-09-27T01:41:46.076Z,76.88
2018-09-27T01:44:16.051Z,75.27
2018-09-27T01:46:46.106Z,74.25
2018-09-27T01:49:16.134Z,75.02
2018-09-27T01:51:46.153Z,77.35
2018-09-27T01:54:16.058Z,75.13
2018-09-27T01:56:46.078Z,73.65
2018-09-27T01:59:16.103Z,76.69
2018-09-27T02:01:46.090Z,74.85
2018-09-27T02:04:16.091Z,73.55
2018-09-27T02:06:46.035Z,77.05
2018-09-27T02:09:16.083Z,76.95
2018-09-27T02:11:46.153Z,75.35
2018-09-27T02:14:16.108Z,75.71
2018-09-27T02:16:46.092Z,79.29
2018-09-27T02:19:16.167Z,79.90
2018-09-27T02:21:46.281Z,76.28
2018-09-27T02:24:16.285Z,75.25
2018-09-27T02:26:46.286Z,77.06
2018-09-27T02:29:16.220Z,75.48
2018-09-27T02:31:46.312Z,73.80
2018-09-27T02:34:16.334Z,76.26
2018-09-27T02:36:46.287Z,75.25
2018-09-27T02:39:16.283Z,75.11
2018-09-27T02:41:46.268Z,77.15
2018-09-27T02:44:16.233Z,77.43
2018-09-27T02:46:46.211Z,76.50
2018-09-27T02:49:16.208Z,75.32
2018-09-27T02:51:46.150Z,73.82
2018-09-27T02:54:16.141Z,73.36
2018-09-27T02:56:46.181Z,72.83
2018-09-27T02:59:16.167Z,76.88
2018-09-27T03:01:47.117Z,78.04
2018-09-27T03:04:17.175Z,75.19
2018-09-27T03:06:47.185Z,74.74
2018-09-27T03:09:17.212Z,73.87
2018-09-27T03:11:48.127Z,74.08
2018-09-27T03:14:18.134Z,74.70
2018-09-27T03:16:48.300Z,73.82
2018-09-27T03:19:19.408Z,74.05
2018-09-27T03:21:50.111Z,74.67
2018-09-27T03:24:20.711Z,75.76
2018-09-27T03:26:51.612Z,75.13
2018-09-27T03:29:22.545Z,74.21
2018-09-27T03:31:52.501Z,75.45
2018-09-27T03:34:22.490Z,75.64
2018-09-27T03:36:52.508Z,75.22
2018-09-27T03:39:22.511Z,74.50
2018-09-27T03:41:52.464Z,73.41
2018-09-27T03:44:22.605Z,76.29
2018-09-27T03:46:52.697Z,78.48
2018-09-27T03:49:22.639Z,79.36
2018-09-27T03:51:52.617Z,79.48
2018-09-27T03:54:22.675Z,78.10
2018-09-27T03:56:52.631Z,77.52
2018-09-27T03:59:22.544Z,77.11
2018-09-27T04:01:52.611Z,76.32
2018-09-27T04:04:22.697Z,76.12
2018-09-27T04:06:52.679Z,77.35
2018-09-27T04:09:23.896Z,76.47
2018-09-27T04:11:54.591Z,75.47
2018-09-27T04:14:24.603Z,77.46
2018-09-27T04:16:54.606Z,77.00
2018-09-27T04:19:24.552Z,75.45
2018-09-27T04:21:54.601Z,76.21
2018-09-27T04:24:24.558Z,77.05
2018-09-27T04:26:54.532Z,77.49
2018-09-27T04:29:24.481Z,78.55
2018-09-27T04:31:54.469Z,78.13
2018-09-27T04:34:24.632Z,77.78
2018-09-27T04:36:54.635Z,78.14
2018-09-27T04:39:24.622Z,78.03
2018-09-27T04:41:54.619Z,78.41
2018-09-27T04:44:24.565Z,76.39
2018-09-27T04:46:54.550Z,74.96
2018-09-27T04:49:24.552Z,77.89
2018-09-27T04:51:54.584Z,78.40
2018-09-27T04:54:24.713Z,77.38
2018-09-27T04:56:54.691Z,76.81
2018-09-27T04:59:24.809Z,78.50
2018-09-27T05:01:54.786Z,78.54
2018-09-27T05:04:24.726Z,77.06
2018-09-27T05:06:54.736Z,80.30
2018-09-27T05:09:24.732Z,76.88
2018-09-27T05:11:54.720Z,77.11
2018-09-27T05:14:24.684Z,77.54
2018-09-27T05:16:54.694Z,77.07
2018-09-27T05:19:24.699Z,77.75
2018-09-27T05:21:54.679Z,77.77
2018-09-27T05:24:24.671Z,76.88
2018-09-27T05:26:54.707Z,79.42
2018-09-27T05:29:24.797Z,79.32
2018-09-27T05:31:54.763Z,79.97
2018-09-27T05:34:24.800Z,79.97
2018-09-27T05:36:54.820Z,79.33
2018-09-27T05:39:24.805Z,80.03
2018-09-27T05:41:54.812Z,80.42
2018-09-27T05:44:24.752Z,79.98
2018-09-27T05:46:54.704Z,78.15
2018-09-27T05:49:24.676Z,77.45
2018-09-27T05:51:54.647Z,77.00
2018-09-27T05:54:24.616Z,76.70
2018-09-27T05:56:54.618Z,77.43
2018-09-27T05:59:24.627Z,76.73
2018-09-27T06:01:54.592Z,76.62
2018-09-27T06:04:24.567Z,76.08
2018-09-27T06:06:54.637Z,77.48
2018-09-27T06:09:24.951Z,76.23
2018-09-27T06:11:54.951Z,75.96
2018-09-27T06:14:24.876Z,75.78
2018-09-27T06:16:54.896Z,76.59
2018-09-27T06:19:24.798Z,78.06
2018-09-27T06:21:54.668Z,79.02
2018-09-27T06:24:24.663Z,77.81
2018-09-27T06:26:54.530Z,77.12
2018-09-27T06:29:24.404Z,75.97
2018-09-27T06:31:54.363Z,75.43
2018-09-27T06:34:24.470Z,75.76
2018-09-27T06:36:54.622Z,74.64
2018-09-27T06:39:24.543Z,75.03
2018-09-27T06:41:54.517Z,74.69
2018-09-27T06:44:24.586Z,74.73
2018-09-27T06:46:54.450Z,74.91
2018-09-27T06:49:24.460Z,74.91
2018-09-27T06:51:54.310Z,74.67
2018-09-27T06:54:24.185Z,74.92
2018-09-27T06:56:54.263Z,74.21
2018-09-27T06:59:24.245Z,74.30
2018-09-27T07:01:54.159Z,74.87
2018-09-27T07:04:24.183Z,74.69
2018-09-27T07:06:54.217Z,75.06
2018-09-27T07:09:24.064Z,75.32
2018-09-27T07:11:54.166Z,75.75
2018-09-27T07:14:24.061Z,75.40
2018-09-27T07:16:54.143Z,75.42
2018-09-27T07:19:24.098Z,75.88
2018-09-27T07:21:54.004Z,75.54
2018-09-27T07:24:24.043Z,76.51
2018-09-27T07:26:54.090Z,76.22
2018-09-27T07:29:23.975Z,76.25
2018-09-27T07:31:53.911Z,76.26
2018-09-27T07:34:23.989Z,76.87
2018-09-27T07:36:53.982Z,75.81
2018-09-27T07:39:23.933Z,76.81
2018-09-27T07:41:53.907Z,76.64
2018-09-27T07:44:23.898Z,76.23
2018-09-27T07:46:53.869Z,75.93
2018-09-27T07:49:23.796Z,76.53
2018-09-27T07:51:53.757Z,76.81
2018-09-27T07:54:23.683Z,76.94
2018-09-27T07:56:53.693Z,76.32
2018-09-27T07:59:23.642Z,76.00
2018-09-27T08:01:53.629Z,77.16
2018-09-27T08:04:23.543Z,77.43
2018-09-27T08:06:53.487Z,75.90
2018-09-27T08:09:23.451Z,76.48
2018-09-27T08:11:53.431Z,76.97
2018-09-27T08:14:23.358Z,76.79
2018-09-27T08:16:53.304Z,77.72
2018-09-27T08:19:23.288Z,76.55
2018-09-27T08:21:53.270Z,75.72
2018-09-27T08:24:23.192Z,76.45
2018-09-27T08:26:53.236Z,74.85
2018-09-27T08:29:23.186Z,75.29
2018-09-27T08:31:53.183Z,75.25
2018-09-27T08:34:23.093Z,75.56
2018-09-27T08:36:53.060Z,74.98
2018-09-27T08:39:23.048Z,73.00
2018-09-27T08:41:53.069Z,74.18
2018-09-27T08:44:23.096Z,73.38
2018-09-27T08:46:52.922Z,72.80
2018-09-27T08:49:22.805Z,72.90
2018-09-27T08:51:52.691Z,72.04
2018-09-27T08:54:22.646Z,69.34
2018-09-27T08:56:52.546Z,70.76
2018-09-27T08:59:22.632Z,70.37
2018-09-27T09:01:52.580Z,67.87
2018-09-27T09:04:23.337Z,68.96
2018-09-27T09:06:53.386Z,65.45
2018-09-27T09:09:23.413Z,67.59
2018-09-27T09:11:53.335Z,65.03
2018-09-27T09:14:23.425Z,65.00
2018-09-27T09:16:53.393Z,65.18
2018-09-27T09:19:23.427Z,64.93
2018-09-27T09:21:53.540Z,64.84
2018-09-27T09:24:23.600Z,64.40
2018-09-27T09:26:53.783Z,58.93
2018-09-27T09:29:23.933Z,57.26
2018-09-27T09:31:54.074Z,57.69
2018-09-27T09:34:24.161Z,56.90
2018-09-27T09:36:54.282Z,59.78
2018-09-27T09:39:24.392Z,59.17
2018-09-27T09:41:54.406Z,60.86
2018-09-27T09:44:24.905Z,61.31
2018-09-27T09:46:55.363Z,59.27
2018-09-27T09:49:26.017Z,59.20
2018-09-27T09:51:56.565Z,58.73
2018-09-27T09:54:26.641Z,53.21
2018-09-27T09:56:56.699Z,57.33
2018-09-27T09:59:26.915Z,55.45
2018-09-27T10:01:56.876Z,50.37
2018-09-27T10:04:26.970Z,50.92
2018-09-27T10:06:57.129Z,54.69
2018-09-27T10:09:27.157Z,52.68
2018-09-27T10:11:57.187Z,53.15
2018-09-27T10:14:27.156Z,51.92
2018-09-27T10:16:57.264Z,50.68
2018-09-27T10:19:27.190Z,51.53
2018-09-27T10:21:57.200Z,48.94
2018-09-27T10:24:27.127Z,48.52
2018-09-27T10:26:57.159Z,49.18
2018-09-27T10:29:27.038Z,48.17
2018-09-27T10:31:56.953Z,45.65
2018-09-27T10:34:26.867Z,47.58
2018-09-27T10:36:56.865Z,45.04
2018-09-27T10:39:26.706Z,47.42
2018-09-27T10:41:56.632Z,45.01
2018-09-27T10:44:26.596Z,46.03
2018-09-27T10:46:56.579Z,45.55
2018-09-27T10:49:26.577Z,42.27
2018-09-27T10:51:56.584Z,41.67
2018-09-27T10:54:26.496Z,39.80
2018-09-27T10:56:58.210Z,43.33
2018-09-27T10:59:29.014Z,40.79
2018-09-27T11:01:58.868Z,40.38
2018-09-27T11:04:28.835Z,36.98
2018-09-27T11:06:59.009Z,39.82
2018-09-27T11:09:30.328Z,38.85
2018-09-27T11:12:00.274Z,40.45
2018-09-27T11:14:30.231Z,36.72
2018-09-27T11:17:00.187Z,39.16
2018-09-27T11:19:29.959Z,38.73
2018-09-27T11:21:59.712Z,38.80
2018-09-27T11:24:29.740Z,38.19
2018-09-27T11:26:59.596Z,39.91
2018-09-27T11:29:34.435Z,42.63
2018-09-27T11:32:09.608Z,38.59
2018-09-27T11:34:39.450Z,36.92
2018-09-27T11:37:09.291Z,40.74
2018-09-27T11:39:39.165Z,37.67
2018-09-27T11:42:09.211Z,36.46
2018-09-27T11:44:39.208Z,38.29
2018-09-27T11:47:09.182Z,34.88
2018-09-27T11:49:39.207Z,37.47
2018-09-27T11:52:08.950Z,36.58
2018-09-27T11:54:38.942Z,38.99
2018-09-27T11:57:08.960Z,37.04
2018-09-27T11:59:38.880Z,38.77
2018-09-27T12:02:08.811Z,35.75
2018-09-27T12:04:38.878Z,36.07
2018-09-27T12:07:08.898Z,32.11
2018-09-27T12:09:38.888Z,30.95
2018-09-27T12:12:08.958Z,36.86
2018-09-27T12:14:38.844Z,37.11
2018-09-27T12:17:08.900Z,34.46
2018-09-27T12:19:39.022Z,31.26
2018-09-27T12:22:08.886Z,33.71
2018-09-27T12:24:38.923Z,33.69
2018-09-27T12:27:09.228Z,32.63
2018-09-27T12:29:39.148Z,36.73
2018-09-27T12:32:09.041Z,34.71
2018-09-27T12:34:38.850Z,35.51
2018-09-27T12:37:09.267Z,33.22
2018-09-27T12:39:39.212Z,32.82
2018-09-27T12:42:09.418Z,34.27
2018-09-27T12:44:39.117Z,34.99
2018-09-27T12:47:08.996Z,34.56
2018-09-27T12:49:39.919Z,32.59
2018-09-27T12:52:10.111Z,36.27
2018-09-27T12:54:39.725Z,36.30
2018-09-27T12:57:09.713Z,38.42
2018-09-27T12:59:39.624Z,37.86
2018-09-27T13:02:10.032Z,35.52
2018-09-27T13:04:39.739Z,33.85
2018-09-27T13:07:09.730Z,36.67
2018-09-27T13:09:39.507Z,37.36
2018-09-27T13:12:09.605Z,37.13
2018-09-27T13:14:39.506Z,37.09
2018-09-27T13:17:09.366Z,34.66
2018-09-27T13:19:39.238Z,36.40
2018-09-27T13:22:09.050Z,34.54
2018-09-27T13:24:38.958Z,35.09
2018-09-27T13:27:08.856Z,36.29
2018-09-27T13:29:38.634Z,34.91
2018-09-27T13:32:08.666Z,38.89
2018-09-27T13:34:38.581Z,37.90
2018-09-27T13:37:08.577Z,36.37
2018-09-27T13:39:38.489Z,34.51
2018-09-27T13:42:08.744Z,36.23
2018-09-27T13:44:38.753Z,35.80
2018-09-27T13:47:08.621Z,33.27
2018-09-27T13:49:38.478Z,33.01
2018-09-27T13:52:08.697Z,34.17
2018-09-27T13:54:38.627Z,35.55
2018-09-27T13:57:08.835Z,33.47
2018-09-27T13:59:38.976Z,36.44
2018-09-27T14:02:08.844Z,35.54
2018-09-27T14:04:38.736Z,37.37
2018-09-27T14:07:08.670Z,36.10
2018-09-27T14:09:38.652Z,37.20
2018-09-27T14:12:08.611Z,35.48
2018-09-27T14:14:38.669Z,35.35
2018-09-27T14:17:08.459Z,35.95
2018-09-27T14:19:38.445Z,32.95
2018-09-27T14:22:08.340Z,34.60
2018-09-27T14:24:38.295Z,34.47
2018-09-27T14:27:08.309Z,34.85
2018-09-27T14:29:38.193Z,32.91
2018-09-27T14:32:08.178Z,36.54
2018-09-27T14:34:38.154Z,35.92
2018-09-27T14:37:08.222Z,35.50
2018-09-27T14:39:38.168Z,36.76
2018-09-27T14:42:09.141Z,35.72
2018-09-27T14:44:39.121Z,34.67
2018-09-27T14:47:09.184Z,34.80
2018-09-27T14:49:39.076Z,35.52
2018-09-27T14:52:09.945Z,37.33
2018-09-27T14:54:39.828Z,34.13
2018-09-27T14:57:09.892Z,35.44
2018-09-27T14:59:39.763Z,36.54
2018-09-27T15:02:09.688Z,32.42
2018-09-27T15:04:39.793Z,32.84
2018-09-27T15:07:09.735Z,32.25
2018-09-27T15:09:40.394Z,34.68
2018-09-27T15:12:10.204Z,32.27
2018-09-27T15:14:40.341Z,35.07
2018-09-27T15:17:10.479Z,37.03
2018-09-27T15:19:40.333Z,31.83
2018-09-27T15:22:10.341Z,35.55
2018-09-27T15:24:40.395Z,37.35
2018-09-27T15:27:10.481Z,36.46
2018-09-27T15:29:40.438Z,36.06
2018-09-27T15:32:10.334Z,37.22
2018-09-27T15:34:40.325Z,34.85
2018-09-27T15:37:10.363Z,33.58
2018-09-27T15:39:40.242Z,35.90
2018-09-27T15:42:10.385Z,33.62
2018-09-27T15:44:40.347Z,33.04
2018-09-27T15:47:10.450Z,35.24
2018-09-27T15:49:40.432Z,35.51
2018-09-27T15:52:10.479Z,38.51
2018-09-27T15:54:40.332Z,36.51
2018-09-27T15:57:10.292Z,35.76
2018-09-27T15:59:40.447Z,36.29
2018-09-27T16:02:10.513Z,36.32
2018-09-27T16:04:40.333Z,34.75
2018-09-27T16:07:11.075Z,36.18
2018-09-27T16:09:40.996Z,34.80
2018-09-27T16:12:10.980Z,36.19
2018-09-27T16:14:43.286Z,35.63
2018-09-27T16:17:13.549Z,37.50
2018-09-27T16:19:44.117Z,36.82
2018-09-27T16:22:14.120Z,35.31
2018-09-27T16:24:44.128Z,37.50
2018-09-27T16:27:40.137Z,36.06
2018-09-27T16:30:10.235Z,39.49
2018-09-27T16:32:40.337Z,40.32
2018-09-27T16:35:10.490Z,40.17
2018-09-27T16:37:40.366Z,41.81
2018-09-27T16:40:10.415Z,42.16
2018-09-27T16:42:41.377Z,43.44
2018-09-27T16:45:15.844Z,43.27
2018-09-27T16:47:45.783Z,43.79
2018-09-27T16:50:18.662Z,44.20
2018-09-27T16:52:48.661Z,45.18
2018-09-27T16:55:18.841Z,44.87
2018-09-27T16:57:48.725Z,44.23
2018-09-27T17:00:18.717Z,45.24
2018-09-27T17:02:48.722Z,46.10
2018-09-27T17:05:18.690Z,46.11
2018-09-27T17:07:49.384Z,46.19
2018-09-27T17:10:19.937Z,46.17
2018-09-27T17:12:49.955Z,47.55
2018-09-27T17:15:20.215Z,47.46
2018-09-27T17:17:50.356Z,47.36
2018-09-27T17:20:20.317Z,46.73
2018-09-27T17:22:50.314Z,48.04
2018-09-27T17:25:21.368Z,47.72
2018-09-27T17:27:51.445Z,49.11
2018-09-27T17:30:21.563Z,50.03
2018-09-27T17:32:51.474Z,50.62
2018-09-27T17:35:21.344Z,50.30
2018-09-27T17:37:52.781Z,50.42
2018-09-27T17:40:24.153Z,50.49
2018-09-27T17:42:54.060Z,51.78
2018-09-27T17:45:24.093Z,52.26
2018-09-27T17:47:54.091Z,51.94
2018-09-27T17:50:24.205Z,52.65
2018-09-27T17:52:54.441Z,52.53
2018-09-27T17:55:24.520Z,52.26
2018-09-27T17:57:54.386Z,54.02
2018-09-27T18:00:24.322Z,53.45
2018-09-27T18:02:54.207Z,52.47
2018-09-27T18:05:24.315Z,52.73
2018-09-27T18:07:54.179Z,52.88
2018-09-27T18:10:24.241Z,52.48
2018-09-27T18:12:54.044Z,52.79
2018-09-27T18:15:24.024Z,51.94
2018-09-27T18:17:54.193Z,53.40
2018-09-27T18:20:23.934Z,54.59
2018-09-27T18:22:53.928Z,54.61
2018-09-27T18:25:23.808Z,54.26
2018-09-27T18:27:53.995Z,53.84
2018-09-27T18:30:26.111Z,53.83
2018-09-27T18:32:57.737Z,53.59
2018-09-27T18:35:28.838Z,53.58
2018-09-27T18:37:59.451Z,55.04
2018-09-27T18:40:30.814Z,55.46
2018-09-27T18:43:12.718Z,55.27
2018-09-27T18:45:52.747Z,54.03
2018-09-27T18:48:42.279Z,54.61
2018-09-27T18:57:46.676Z,56.00
2018-09-27T19:00:16.612Z,55.83
2018-09-27T19:02:46.491Z,55.78
2018-09-27T19:05:41.143Z,56.23
2018-09-27T19:11:06.622Z,57.00
2018-09-27T19:13:42.816Z,55.89
2018-09-27T19:22:24.706Z,56.86
2018-09-27T19:25:03.915Z,58.24
2018-09-27T19:27:35.103Z,57.92
2018-09-27T19:30:25.419Z,57.95
2018-09-27T19:33:08.677Z,60.15
2018-09-27T19:35:39.245Z,59.64
2018-09-27T19:38:13.295Z,60.86
2018-09-27T19:40:46.938Z,61.12
2018-09-27T19:43:27.252Z,61.48
2018-09-27T19:46:11.130Z,59.63
2018-09-27T19:48:41.436Z,59.29
2018-09-27T19:51:11.377Z,59.51
2018-09-27T19:53:42.244Z,61.70
2018-09-27T19:56:12.193Z,60.01
2018-09-27T19:58:41.994Z,61.33
2018-09-27T20:01:12.143Z,60.93
2018-09-27T20:03:42.358Z,58.90
2018-09-27T20:06:12.235Z,59.69
2018-09-27T20:08:42.963Z,59.60
2018-09-27T20:14:14.197Z,61.06
2018-09-27T20:16:46.677Z,60.76
2018-09-27T20:19:19.456Z,61.29
2018-09-27T20:21:54.315Z,63.37
2018-09-27T20:24:28.527Z,63.15
2018-09-27T20:27:00.139Z,63.50
2018-09-27T20:29:46.268Z,63.20
2018-09-27T20:32:32.067Z,63.07
2018-09-27T20:35:01.853Z,62.46
2018-09-27T20:37:33.355Z,60.81
2018-09-27T20:40:08.847Z,61.91
2018-09-27T20:42:42.210Z,61.38
2018-09-27T20:45:14.721Z,62.20
2018-09-27T20:47:57.378Z,63.68
2018-09-27T20:50:44.201Z,63.75
2018-09-27T20:56:09.191Z,62.75
2018-09-27T20:58:53.009Z,62.20
2018-09-27T21:01:24.679Z,64.39
2018-09-27T21:03:56.314Z,66.43
2018-09-27T21:06:30.902Z,66.04
2018-09-27T21:09:00.639Z,65.51
2018-09-27T21:11:30.571Z,64.38
2018-09-27T21:14:00.520Z,63.57
2018-09-27T21:16:30.341Z,62.49
2018-09-27T21:19:01.265Z,64.67
2018-09-27T21:21:31.578Z,66.61
2018-09-27T21:24:01.375Z,66.97
2018-09-27T21:26:31.472Z,65.91
2018-09-27T21:29:04.631Z,66.07
2018-09-27T21:31:35.496Z,64.36
2018-09-27T21:34:05.485Z,63.65
2018-09-27T21:36:35.555Z,63.37
2018-09-27T21:39:07.022Z,66.99
2018-09-27T21:41:37.075Z,65.91
2018-09-27T21:44:11.528Z,65.46
2018-09-27T21:46:41.268Z,65.57
2018-09-27T21:49:12.431Z,64.98
2018-09-27T21:51:43.774Z,63.97
2018-09-27T21:54:13.695Z,64.57
2018-09-27T21:56:43.747Z,63.71
2018-09-27T21:59:13.627Z,66.64
2018-09-27T22:01:43.344Z,65.25
2018-09-27T22:04:13.108Z,66.46
2018-09-27T22:06:43.371Z,67.38
2018-09-27T22:09:13.266Z,69.34
2018-09-27T22:11:43.087Z,67.37
2018-09-27T22:14:13.022Z,65.33
2018-09-27T22:16:42.807Z,65.36
2018-09-27T22:19:12.675Z,65.77
2018-09-27T22:21:44.802Z,67.54
2018-09-27T22:24:14.718Z,68.75
2018-09-27T22:26:44.523Z,67.35
2018-09-27T22:29:14.415Z,69.87
2018-09-27T22:31:44.393Z,68.77
2018-09-27T22:34:14.143Z,67.00
2018-09-27T22:36:44.004Z,66.76
2018-09-27T22:39:13.730Z,65.63
2018-09-27T22:41:43.605Z,67.68
2018-09-27T22:44:13.388Z,68.84
2018-09-27T22:46:47.053Z,70.17
2018-09-27T22:49:17.323Z,70.61
2018-09-27T22:51:47.114Z,70.13
2018-09-27T22:54:19.038Z,68.69
2018-09-27T22:56:49.111Z,67.62
2018-09-27T22:59:19.083Z,66.21
2018-09-27T23:01:48.825Z,65.54
2018-09-27T23:04:18.748Z,65.37
2018-09-27T23:06:48.952Z,67.53
2018-09-27T23:09:18.756Z,68.43
2018-09-27T23:11:48.545Z,70.71
2018-09-27T23:14:18.249Z,70.81
2018-09-27T23:16:48.331Z,69.61
2018-09-27T23:19:18.369Z,68.67
2018-09-27T23:21:48.146Z,68.30
2018-09-27T23:24:18.023Z,67.43
2018-09-27T23:26:48.029Z,68.77
2018-09-27T23:29:20.160Z,69.30
2018-09-27T23:31:50.212Z,68.63
2018-09-27T23:34:21.274Z,68.03
2018-09-27T23:36:51.046Z,69.10
2018-09-27T23:39:21.624Z,68.80
2018-09-27T23:41:51.542Z,69.17
2018-09-27T23:44:21.709Z,67.51
2018-09-27T23:46:51.607Z,66.94
2018-09-27T23:49:21.467Z,68.75
2018-09-27T23:51:51.403Z,69.19
2018-09-27T23:54:21.384Z,71.79
2018-09-27T23:56:51.489Z,70.01
2018-09-27T23:59:21.456Z,70.89
